createdAt,value
2017-07-25T00:00:05.468Z,999.73
2017-07-25T00:01:15.986Z,999.73
2017-07-25T00:02:26.264Z,999.71
2017-07-25T00:03:35.908Z,999.69
2017-07-25T00:04:46.174Z,999.69
2017-07-25T00:05:56.441Z,999.66
2017-07-25T00:07:07.019Z,999.66
2017-07-25T00:08:17.282Z,999.63
2017-07-25T00:09:27.560Z,999.64
2017-07-25T00:10:37.211Z,999.62
2017-07-25T00:11:47.193Z,999.6
2017-07-25T00:12:57.723Z,999.59
2017-07-25T00:14:08.010Z,999.57
2017-07-25T00:15:18.276Z,999.53
2017-07-25T00:16:28.234Z,999.57
2017-07-25T00:17:38.205Z,999.52
2017-07-25T00:18:48.727Z,999.51
2017-07-25T00:19:58.384Z,999.47
2017-07-25T00:21:08.651Z,999.5
2017-07-25T00:22:18.634Z,999.45
2017-07-25T00:23:28.923Z,999.45
2017-07-25T00:24:39.460Z,999.42
2017-07-25T00:25:49.739Z,999.36
2017-07-25T00:26:59.707Z,999.33
2017-07-25T00:28:09.999Z,999.37
2017-07-25T00:29:20.286Z,999.32
2017-07-25T00:30:30.823Z,999.38
2017-07-25T00:31:40.794Z,999.33
2017-07-25T00:32:50.456Z,999.33
2017-07-25T00:34:00.430Z,999.31
2017-07-25T00:35:10.706Z,999.27
2017-07-25T00:36:21.240Z,999.22
2017-07-25T00:37:31.199Z,999.19
2017-07-25T00:38:41.165Z,999.19
2017-07-25T00:39:51.142Z,999.18
2017-07-25T00:41:01.107Z,999.18
2017-07-25T00:42:11.620Z,999.17
2017-07-25T00:43:21.887Z,999.15
2017-07-25T00:44:32.149Z,999.13
2017-07-25T00:45:42.438Z,999.16
2017-07-25T00:46:52.722Z,999.16
2017-07-25T00:48:03.257Z,999.14
2017-07-25T00:49:13.226Z,999.14
2017-07-25T00:50:23.176Z,999.17
2017-07-25T00:51:33.442Z,999.13
2017-07-25T00:52:43.725Z,999.08
2017-07-25T00:53:53.935Z,999.11
2017-07-25T00:55:04.207Z,999.11
2017-07-25T00:56:14.204Z,999.05
2017-07-25T00:57:23.862Z,999.11
2017-07-25T00:58:34.147Z,999.1
2017-07-25T00:59:44.682Z,999.11
2017-07-25T01:00:54.959Z,999.08
2017-07-25T01:02:05.237Z,999.08
2017-07-25T01:03:15.514Z,999.08
2017-07-25T01:04:25.465Z,999.02
2017-07-25T01:05:35.374Z,999.04
2017-07-25T01:06:45.354Z,998.98
2017-07-25T01:07:55.628Z,999
2017-07-25T01:09:05.891Z,998.94
2017-07-25T01:10:15.840Z,998.97
2017-07-25T01:11:26.375Z,998.96
2017-07-25T01:12:36.363Z,998.95
2017-07-25T01:13:46.633Z,999
2017-07-25T01:14:56.916Z,998.97
2017-07-25T01:16:07.203Z,998.99
2017-07-25T01:17:17.440Z,999
2017-07-25T01:18:27.719Z,998.94
2017-07-25T01:19:38.008Z,999
2017-07-25T01:20:48.300Z,998.93
2017-07-25T01:21:58.256Z,998.92
2017-07-25T01:23:08.774Z,998.89
2017-07-25T01:24:19.058Z,998.92
2017-07-25T01:25:29.012Z,998.85
2017-07-25T01:26:39.298Z,998.88
2017-07-25T01:27:49.577Z,998.86
2017-07-25T01:29:00.109Z,998.83
2017-07-25T01:30:10.085Z,998.85
2017-07-25T01:31:20.354Z,998.83
2017-07-25T01:32:30.648Z,998.76
2017-07-25T01:33:40.946Z,998.78
2017-07-25T01:34:51.536Z,998.78
2017-07-25T01:36:01.816Z,998.76
2017-07-25T01:37:11.792Z,998.78
2017-07-25T01:38:21.741Z,998.75
2017-07-25T01:39:32.023Z,998.75
2017-07-25T01:40:42.546Z,998.76
2017-07-25T01:41:52.526Z,998.73
2017-07-25T01:43:02.497Z,998.74
2017-07-25T01:44:12.449Z,998.72
2017-07-25T01:45:22.742Z,998.7
2017-07-25T01:46:33.281Z,998.74
2017-07-25T01:47:43.241Z,998.72
2017-07-25T01:48:53.202Z,998.7
2017-07-25T01:50:03.159Z,998.69
2017-07-25T01:51:13.125Z,998.7
2017-07-25T01:52:23.335Z,998.69
2017-07-25T01:53:33.615Z,998.68
2017-07-25T01:54:43.584Z,998.69
2017-07-25T01:55:53.865Z,998.66
2017-07-25T01:57:03.823Z,998.69
2017-07-25T01:58:14.028Z,998.67
2017-07-25T01:59:23.688Z,998.65
2017-07-25T02:00:33.979Z,998.64
2017-07-25T02:01:44.261Z,998.63
2017-07-25T02:02:54.521Z,998.64
2017-07-25T02:04:05.068Z,998.62
2017-07-25T02:05:15.351Z,998.64
2017-07-25T02:06:25.632Z,998.61
2017-07-25T02:07:35.912Z,998.6
2017-07-25T02:08:46.180Z,998.6
2017-07-25T02:09:56.418Z,998.59
2017-07-25T02:11:06.719Z,998.6
2017-07-25T02:12:17.000Z,998.64
2017-07-25T02:13:26.970Z,998.62
2017-07-25T02:14:37.256Z,998.57
2017-07-25T02:15:47.462Z,998.56
2017-07-25T02:16:57.431Z,998.57
2017-07-25T02:18:07.386Z,998.57
2017-07-25T02:19:17.669Z,998.54
2017-07-25T02:20:27.957Z,998.55
2017-07-25T02:21:37.857Z,998.53
2017-07-25T02:22:47.830Z,998.52
2017-07-25T02:23:58.115Z,998.52
2017-07-25T02:25:08.077Z,998.49
2017-07-25T02:26:17.746Z,998.45
2017-07-25T02:27:27.959Z,998.48
2017-07-25T02:28:38.243Z,998.48
2017-07-25T02:29:48.514Z,998.47
2017-07-25T02:30:58.470Z,998.53
2017-07-25T02:32:08.455Z,998.52
2017-07-25T02:33:18.690Z,998.51
2017-07-25T02:34:29.004Z,998.53
2017-07-25T02:35:38.991Z,998.53
2017-07-25T02:36:48.953Z,998.51
2017-07-25T02:37:58.930Z,998.5
2017-07-25T02:39:09.456Z,998.52
2017-07-25T02:40:19.717Z,998.5
2017-07-25T02:41:30.256Z,998.49
2017-07-25T02:42:40.550Z,998.51
2017-07-25T02:43:50.818Z,998.5
2017-07-25T02:45:01.383Z,998.49
2017-07-25T02:46:11.357Z,998.47
2017-07-25T02:47:21.311Z,998.52
2017-07-25T02:48:31.589Z,998.46
2017-07-25T02:49:41.873Z,998.47
2017-07-25T02:50:52.390Z,998.47
2017-07-25T02:52:02.692Z,998.47
2017-07-25T02:53:12.985Z,998.49
2017-07-25T02:54:23.265Z,998.48
2017-07-25T02:55:32.602Z,998.47
2017-07-25T02:56:43.123Z,998.48
2017-07-25T02:57:52.483Z,998.45
2017-07-25T02:59:02.749Z,998.47
2017-07-25T03:00:13.015Z,998.44
2017-07-25T03:01:23.297Z,998.43
2017-07-25T03:02:33.820Z,998.43
2017-07-25T03:03:44.099Z,998.44
2017-07-25T03:04:54.371Z,998.41
2017-07-25T03:06:04.667Z,998.43
2017-07-25T03:07:14.621Z,998.42
2017-07-25T03:08:25.134Z,998.46
2017-07-25T03:09:35.110Z,998.42
2017-07-25T03:10:45.070Z,998.41
2017-07-25T03:11:55.360Z,998.4
2017-07-25T03:13:05.310Z,998.4
2017-07-25T03:14:15.923Z,998.39
2017-07-25T03:15:25.891Z,998.38
2017-07-25T03:16:35.863Z,998.35
2017-07-25T03:17:46.142Z,998.36
2017-07-25T03:18:55.478Z,998.34
2017-07-25T03:20:06.020Z,998.31
2017-07-25T03:21:15.989Z,998.29
2017-07-25T03:22:26.257Z,998.33
2017-07-25T03:23:36.235Z,998.3
2017-07-25T03:24:46.510Z,998.32
2017-07-25T03:25:57.039Z,998.29
2017-07-25T03:27:07.016Z,998.28
2017-07-25T03:28:17.278Z,998.25
2017-07-25T03:29:27.246Z,998.27
2017-07-25T03:30:37.210Z,998.25
2017-07-25T03:31:47.738Z,998.25
2017-07-25T03:32:58.004Z,998.27
2017-07-25T03:34:08.272Z,998.27
2017-07-25T03:35:17.935Z,998.23
2017-07-25T03:36:27.891Z,998.28
2017-07-25T03:37:38.408Z,998.27
2017-07-25T03:38:48.374Z,998.34
2017-07-25T03:39:58.658Z,998.25
2017-07-25T03:41:08.937Z,998.24
2017-07-25T03:42:19.213Z,998.24
2017-07-25T03:43:29.750Z,998.25
2017-07-25T03:44:40.023Z,998.26
2017-07-25T03:45:49.669Z,998.22
2017-07-25T03:46:59.939Z,998.22
2017-07-25T03:48:09.900Z,998.19
2017-07-25T03:49:20.423Z,998.21
2017-07-25T03:50:30.715Z,998.18
2017-07-25T03:51:40.365Z,998.16
2017-07-25T03:52:50.339Z,998.2
2017-07-25T03:54:00.600Z,998.17
2017-07-25T03:55:10.804Z,998.13
2017-07-25T03:56:20.459Z,998.1
2017-07-25T03:57:30.743Z,998.11
2017-07-25T03:58:40.700Z,998.07
2017-07-25T03:59:50.969Z,998.06
2017-07-25T04:01:01.503Z,998.08
2017-07-25T04:02:11.477Z,998.05
2017-07-25T04:03:21.434Z,998.01
2017-07-25T04:04:31.406Z,998.03
2017-07-25T04:05:41.677Z,997.99
2017-07-25T04:06:52.206Z,997.99
2017-07-25T04:08:02.482Z,997.92
2017-07-25T04:09:12.749Z,997.92
2017-07-25T04:10:22.735Z,997.92
2017-07-25T04:11:33.014Z,997.89
2017-07-25T04:12:43.261Z,997.85
2017-07-25T04:13:53.546Z,997.84
2017-07-25T04:15:03.519Z,997.86
2017-07-25T04:16:13.686Z,997.85
2017-07-25T04:17:23.660Z,997.83
2017-07-25T04:18:34.198Z,997.8
2017-07-25T04:19:44.183Z,997.8
2017-07-25T04:20:54.457Z,997.84
2017-07-25T04:22:04.736Z,997.79
2017-07-25T04:23:15.008Z,997.81
2017-07-25T04:24:25.219Z,997.74
2017-07-25T04:25:35.505Z,997.78
2017-07-25T04:26:45.481Z,997.77
2017-07-25T04:27:55.760Z,997.77
2017-07-25T04:29:05.737Z,997.74
2017-07-25T04:30:16.329Z,997.73
2017-07-25T04:31:26.304Z,997.73
2017-07-25T04:32:36.589Z,997.74
2017-07-25T04:33:46.552Z,997.75
2017-07-25T04:34:56.220Z,997.73
2017-07-25T04:36:06.127Z,997.76
2017-07-25T04:37:16.113Z,997.74
2017-07-25T04:38:26.389Z,997.78
2017-07-25T04:39:36.669Z,997.69
2017-07-25T04:40:46.974Z,997.73
2017-07-25T04:41:57.178Z,997.76
2017-07-25T04:43:06.838Z,997.66
2017-07-25T04:44:17.114Z,997.65
2017-07-25T04:45:27.394Z,997.66
2017-07-25T04:46:37.681Z,997.67
2017-07-25T04:47:48.216Z,997.64
2017-07-25T04:48:58.490Z,997.65
2017-07-25T04:50:08.760Z,997.67
2017-07-25T04:51:19.042Z,997.63
2017-07-25T04:52:29.321Z,997.62
2017-07-25T04:53:39.536Z,997.55
2017-07-25T04:54:49.496Z,997.58
2017-07-25T04:55:59.473Z,997.54
2017-07-25T04:57:09.420Z,997.54
2017-07-25T04:58:19.700Z,997.52
2017-07-25T04:59:30.228Z,997.54
2017-07-25T05:00:40.189Z,997.5
2017-07-25T05:01:50.177Z,997.46
2017-07-25T05:03:00.469Z,997.47
2017-07-25T05:04:10.750Z,997.47
2017-07-25T05:05:20.344Z,997.49
2017-07-25T05:06:30.625Z,997.44
2017-07-25T05:07:40.906Z,997.44
2017-07-25T05:08:51.174Z,997.4
2017-07-25T05:10:01.454Z,997.37
2017-07-25T05:11:11.682Z,997.35
2017-07-25T05:12:21.650Z,997.34
2017-07-25T05:13:31.627Z,997.3
2017-07-25T05:14:41.609Z,997.3
2017-07-25T05:15:51.896Z,997.3
2017-07-25T05:17:02.129Z,997.28
2017-07-25T05:18:12.416Z,997.27
2017-07-25T05:19:22.707Z,997.25
2017-07-25T05:20:32.670Z,997.27
2017-07-25T05:21:42.317Z,997.27
2017-07-25T05:22:52.838Z,997.3
2017-07-25T05:24:02.792Z,997.27
2017-07-25T05:25:13.071Z,997.23
2017-07-25T05:26:23.342Z,997.28
2017-07-25T05:27:33.319Z,997.27
2017-07-25T05:28:43.233Z,997.29
2017-07-25T05:29:53.211Z,997.25
2017-07-25T05:31:02.858Z,997.24
2017-07-25T05:32:13.151Z,997.26
2017-07-25T05:33:23.121Z,997.23
2017-07-25T05:34:33.390Z,997.19
2017-07-25T05:35:43.684Z,997.2
2017-07-25T05:36:53.978Z,997.19
2017-07-25T05:38:04.249Z,997.19
2017-07-25T05:39:14.202Z,997.16
2017-07-25T05:40:24.416Z,997.17
2017-07-25T05:41:34.678Z,997.18
2017-07-25T05:42:44.965Z,997.14
2017-07-25T05:43:54.927Z,997.12
2017-07-25T05:45:04.581Z,997.13
2017-07-25T05:46:14.486Z,997.16
2017-07-25T05:47:24.447Z,997.14
2017-07-25T05:48:34.733Z,997.15
2017-07-25T05:49:45.003Z,997.14
2017-07-25T05:50:54.969Z,997.12
2017-07-25T05:52:05.501Z,997.16
2017-07-25T05:53:15.461Z,997.08
2017-07-25T05:54:25.730Z,997.07
2017-07-25T05:55:35.717Z,997.06
2017-07-25T05:56:45.361Z,997.04
2017-07-25T05:57:55.589Z,997.04
2017-07-25T05:59:05.555Z,997.05
2017-07-25T06:00:15.519Z,997
2017-07-25T06:01:25.797Z,997.06
2017-07-25T06:02:35.768Z,997.03
2017-07-25T06:03:46.289Z,997.08
2017-07-25T06:04:56.271Z,997.03
2017-07-25T06:06:06.578Z,996.95
2017-07-25T06:07:16.555Z,997.02
2017-07-25T06:08:26.837Z,997.05
2017-07-25T06:09:37.358Z,997.01
2017-07-25T06:10:47.659Z,997.02
2017-07-25T06:11:57.628Z,997
2017-07-25T06:13:06.961Z,996.97
2017-07-25T06:14:17.234Z,996.98
2017-07-25T06:15:27.769Z,997.01
2017-07-25T06:16:38.041Z,997.01
2017-07-25T06:17:48.323Z,996.99
2017-07-25T06:18:58.303Z,996.97
2017-07-25T06:20:08.307Z,996.99
2017-07-25T06:21:18.849Z,997.01
2017-07-25T06:22:29.143Z,997.02
2017-07-25T06:23:39.453Z,997.03
2017-07-25T06:24:49.749Z,997.02
2017-07-25T06:26:00.015Z,997.04
2017-07-25T06:27:10.544Z,997.03
2017-07-25T06:28:20.521Z,997.04
2017-07-25T06:29:30.813Z,997.02
2017-07-25T06:30:41.106Z,997.03
2017-07-25T06:31:51.401Z,997.02
2017-07-25T06:33:01.944Z,996.99
2017-07-25T06:34:11.935Z,996.96
2017-07-25T06:35:21.911Z,996.95
2017-07-25T06:36:32.189Z,996.91
2017-07-25T06:37:42.509Z,996.91
2017-07-25T06:38:53.049Z,996.94
2017-07-25T06:40:03.020Z,996.94
2017-07-25T06:41:13.322Z,996.98
2017-07-25T06:42:23.644Z,996.99
2017-07-25T06:43:33.951Z,996.92
2017-07-25T06:44:44.470Z,996.96
2017-07-25T06:45:54.745Z,997.02
2017-07-25T06:47:04.415Z,997.01
2017-07-25T06:48:14.709Z,997.01
2017-07-25T06:49:24.987Z,997.01
2017-07-25T06:50:35.549Z,997
2017-07-25T06:51:45.544Z,997.03
2017-07-25T06:52:55.533Z,997.03
2017-07-25T06:54:05.834Z,997
2017-07-25T06:55:15.832Z,997.08
2017-07-25T06:56:26.359Z,997.06
2017-07-25T06:57:36.668Z,997.05
2017-07-25T06:58:46.974Z,997.06
2017-07-25T06:59:57.244Z,997.04
2017-07-25T07:01:07.548Z,997.07
2017-07-25T07:02:18.077Z,997.06
2017-07-25T07:03:28.057Z,997.04
2017-07-25T07:04:38.347Z,997.05
2017-07-25T07:05:48.638Z,997.07
2017-07-25T07:06:58.627Z,997.06
2017-07-25T07:08:09.170Z,997.06
2017-07-25T07:09:19.161Z,997.08
2017-07-25T07:10:29.458Z,997.08
2017-07-25T07:11:39.127Z,997.12
2017-07-25T07:12:48.786Z,997.09
2017-07-25T07:13:59.319Z,997.09
2017-07-25T07:15:09.616Z,997.06
2017-07-25T07:16:19.600Z,997.08
2017-07-25T07:17:29.905Z,997.07
2017-07-25T07:18:40.178Z,997.11
2017-07-25T07:19:50.099Z,997.12
2017-07-25T07:21:00.398Z,997.11
2017-07-25T07:22:10.677Z,997.07
2017-07-25T07:23:20.644Z,997.04
2017-07-25T07:24:30.609Z,997.02
2017-07-25T07:25:40.821Z,996.98
2017-07-25T07:26:50.779Z,997.07
2017-07-25T07:28:01.063Z,997.06
2017-07-25T07:29:11.041Z,997.06
2017-07-25T07:30:21.322Z,997.09
2017-07-25T07:31:31.849Z,997.1
2017-07-25T07:32:41.821Z,997.1
2017-07-25T07:33:52.102Z,997.09
2017-07-25T07:35:02.378Z,997.14
2017-07-25T07:36:12.074Z,997.1
2017-07-25T07:37:22.666Z,997.1
2017-07-25T07:38:32.341Z,997.15
2017-07-25T07:39:42.308Z,997.12
2017-07-25T07:40:52.276Z,997.14
2017-07-25T07:42:02.553Z,997.13
2017-07-25T07:43:13.084Z,997.1
2017-07-25T07:44:23.047Z,997.13
2017-07-25T07:45:33.331Z,997.06
2017-07-25T07:46:43.616Z,997.12
2017-07-25T07:47:53.581Z,997.09
2017-07-25T07:49:04.163Z,997.16
2017-07-25T07:50:14.468Z,997.1
2017-07-25T07:51:24.760Z,997.1
2017-07-25T07:52:35.057Z,997.09
2017-07-25T07:53:45.343Z,997.14
2017-07-25T07:54:55.866Z,997.11
2017-07-25T07:56:06.173Z,997.11
2017-07-25T07:57:16.151Z,997.08
2017-07-25T07:58:26.127Z,997.08
2017-07-25T07:59:36.406Z,997.04
2017-07-25T08:00:46.972Z,997.04
2017-07-25T08:01:56.985Z,997.05
2017-07-25T08:03:07.319Z,997.04
2017-07-25T08:04:17.595Z,997.05
2017-07-25T08:05:27.587Z,997.06
2017-07-25T08:06:38.119Z,997.04
2017-07-25T08:07:48.104Z,997.01
2017-07-25T08:08:58.390Z,997.02
2017-07-25T08:10:08.714Z,996.99
2017-07-25T08:11:19.037Z,997.06
2017-07-25T08:12:29.286Z,997.02
2017-07-25T08:13:38.963Z,996.97
2017-07-25T08:14:49.234Z,996.98
2017-07-25T08:15:59.524Z,996.98
2017-07-25T08:17:09.523Z,996.98
2017-07-25T08:18:19.446Z,996.97
2017-07-25T08:19:29.718Z,996.97
2017-07-25T08:20:40.004Z,996.96
2017-07-25T08:21:49.967Z,996.96
2017-07-25T08:22:59.944Z,996.93
2017-07-25T08:24:10.482Z,996.96
2017-07-25T08:25:20.762Z,996.97
2017-07-25T08:26:30.115Z,996.96
2017-07-25T08:27:40.414Z,996.97
2017-07-25T08:28:50.379Z,996.91
2017-07-25T08:30:00.905Z,996.96
2017-07-25T08:31:11.199Z,996.97
2017-07-25T08:32:21.474Z,996.96
2017-07-25T08:33:31.772Z,996.99
2017-07-25T08:34:41.729Z,996.99
2017-07-25T08:35:51.957Z,996.95
2017-07-25T08:37:01.933Z,997
2017-07-25T08:38:11.598Z,996.98
2017-07-25T08:39:21.917Z,996.99
2017-07-25T08:40:32.209Z,996.95
2017-07-25T08:41:42.774Z,996.96
2017-07-25T08:42:53.054Z,996.92
2017-07-25T08:44:03.325Z,996.88
2017-07-25T08:45:13.613Z,996.88
2017-07-25T08:46:23.908Z,996.95
2017-07-25T08:47:34.132Z,996.99
2017-07-25T08:48:44.401Z,997
2017-07-25T08:49:54.372Z,996.97
2017-07-25T08:51:04.349Z,997.01
2017-07-25T08:52:14.315Z,996.96
2017-07-25T08:53:24.843Z,996.98
2017-07-25T08:54:35.148Z,996.96
2017-07-25T08:55:45.442Z,996.96
2017-07-25T08:56:55.713Z,997
2017-07-25T08:58:05.982Z,997
2017-07-25T08:59:16.177Z,996.95
2017-07-25T09:00:26.142Z,996.98
2017-07-25T09:01:36.413Z,996.97
2017-07-25T09:02:46.693Z,996.97
2017-07-25T09:03:56.972Z,996.98
2017-07-25T09:05:07.195Z,996.96
2017-07-25T09:06:17.185Z,996.94
2017-07-25T09:07:27.470Z,996.94
2017-07-25T09:08:37.736Z,996.89
2017-07-25T09:09:47.729Z,996.9
2017-07-25T09:10:58.243Z,996.93
2017-07-25T09:12:08.199Z,996.92
2017-07-25T09:13:18.511Z,996.94
2017-07-25T09:14:28.824Z,996.9
2017-07-25T09:15:38.784Z,996.89
2017-07-25T09:16:49.105Z,996.87
2017-07-25T09:17:59.111Z,996.87
2017-07-25T09:19:08.786Z,996.82
2017-07-25T09:20:19.096Z,996.84
2017-07-25T09:21:29.078Z,996.83
2017-07-25T09:22:39.635Z,996.82
2017-07-25T09:23:49.601Z,996.74
2017-07-25T09:24:59.892Z,996.77
2017-07-25T09:26:10.190Z,996.72
2017-07-25T09:27:20.472Z,996.73
2017-07-25T09:28:30.707Z,996.75
2017-07-25T09:29:41.000Z,996.78
2017-07-25T09:30:51.286Z,996.79
2017-07-25T09:32:01.584Z,996.79
2017-07-25T09:33:11.584Z,996.74
2017-07-25T09:34:22.208Z,996.74
2017-07-25T09:35:32.528Z,996.66
2017-07-25T09:36:42.502Z,996.66
2017-07-25T09:37:52.806Z,996.67
2017-07-25T09:39:03.087Z,996.68
2017-07-25T09:40:13.640Z,996.71
2017-07-25T09:41:23.611Z,996.68
2017-07-25T09:42:33.893Z,996.67
2017-07-25T09:43:43.883Z,996.69
2017-07-25T09:44:53.853Z,996.65
2017-07-25T09:46:04.151Z,996.62
2017-07-25T09:47:14.436Z,996.59
2017-07-25T09:48:24.402Z,996.61
2017-07-25T09:49:34.678Z,996.66
2017-07-25T09:50:44.955Z,996.66
2017-07-25T09:51:55.482Z,996.69
2017-07-25T09:53:05.757Z,996.71
2017-07-25T09:54:16.048Z,996.71
2017-07-25T09:55:26.043Z,996.67
2017-07-25T09:56:36.331Z,996.62
2017-07-25T09:57:46.597Z,996.67
2017-07-25T09:58:56.582Z,996.69
2017-07-25T10:00:06.563Z,996.66
2017-07-25T10:01:16.847Z,996.62
2017-07-25T10:02:27.142Z,996.61
2017-07-25T10:03:37.681Z,996.58
2017-07-25T10:04:47.658Z,996.6
2017-07-25T10:05:57.328Z,996.61
2017-07-25T10:07:07.612Z,996.59
2017-07-25T10:08:17.604Z,996.6
2017-07-25T10:09:28.141Z,996.61
2017-07-25T10:10:38.427Z,996.64
2017-07-25T10:11:48.721Z,996.61
2017-07-25T10:12:58.681Z,996.63
2017-07-25T10:14:08.047Z,996.57
2017-07-25T10:15:18.646Z,996.56
2017-07-25T10:16:28.916Z,996.57
2017-07-25T10:17:39.204Z,996.56
2017-07-25T10:18:49.854Z,996.6
2017-07-25T10:20:00.166Z,996.54
2017-07-25T10:21:10.407Z,996.52
2017-07-25T10:22:20.718Z,996.54
2017-07-25T10:23:31.012Z,996.53
2017-07-25T10:24:40.995Z,996.59
2017-07-25T10:25:50.986Z,996.54
2017-07-25T10:27:01.219Z,996.59
2017-07-25T10:28:11.194Z,996.52
2017-07-25T10:29:21.204Z,996.51
2017-07-25T10:30:31.491Z,996.58
2017-07-25T10:31:41.478Z,996.58
2017-07-25T10:32:51.769Z,996.55
2017-07-25T10:34:02.043Z,996.58
2017-07-25T10:35:12.333Z,996.57
2017-07-25T10:36:22.644Z,996.56
2017-07-25T10:37:32.620Z,996.59
2017-07-25T10:38:42.834Z,996.54
2017-07-25T10:39:52.799Z,996.51
2017-07-25T10:41:03.106Z,996.49
2017-07-25T10:42:13.645Z,996.53
2017-07-25T10:43:23.318Z,996.51
2017-07-25T10:44:33.551Z,996.5
2017-07-25T10:45:43.836Z,996.47
2017-07-25T10:46:54.136Z,996.45
2017-07-25T10:48:04.669Z,996.47
2017-07-25T10:49:14.964Z,996.47
2017-07-25T10:50:25.195Z,996.44
2017-07-25T10:51:35.166Z,996.42
2017-07-25T10:52:45.119Z,996.48
2017-07-25T10:53:55.423Z,996.46
2017-07-25T10:55:05.715Z,996.46
2017-07-25T10:56:16.230Z,996.44
2017-07-25T10:57:26.208Z,996.43
2017-07-25T10:58:36.500Z,996.36
2017-07-25T10:59:46.472Z,996.42
2017-07-25T11:00:56.753Z,996.48
2017-07-25T11:02:06.370Z,996.47
2017-07-25T11:03:16.672Z,996.53
2017-07-25T11:04:26.648Z,996.59
2017-07-25T11:05:36.948Z,996.59
2017-07-25T11:06:46.916Z,996.6
2017-07-25T11:07:56.832Z,996.59
2017-07-25T11:09:06.810Z,996.58
2017-07-25T11:10:16.786Z,996.63
2017-07-25T11:11:27.075Z,996.6
2017-07-25T11:12:37.063Z,996.56
2017-07-25T11:13:47.600Z,996.56
2017-07-25T11:14:57.562Z,996.57
2017-07-25T11:16:07.546Z,996.48
2017-07-25T11:17:17.526Z,996.43
2017-07-25T11:18:27.521Z,996.39
2017-07-25T11:19:37.749Z,996.41
2017-07-25T11:20:48.048Z,996.45
2017-07-25T11:21:58.058Z,996.42
2017-07-25T11:23:08.363Z,996.39
2017-07-25T11:24:18.647Z,996.43
2017-07-25T11:25:29.194Z,996.47
2017-07-25T11:26:39.478Z,996.42
2017-07-25T11:27:49.776Z,996.42
2017-07-25T11:28:59.750Z,996.44
2017-07-25T11:30:10.039Z,996.45
2017-07-25T11:31:20.272Z,996.48
2017-07-25T11:32:30.543Z,996.49
2017-07-25T11:33:40.831Z,996.51
2017-07-25T11:34:50.794Z,996.5
2017-07-25T11:36:01.087Z,996.46
2017-07-25T11:37:11.634Z,996.46
2017-07-25T11:38:21.930Z,996.42
2017-07-25T11:39:31.962Z,996.4
2017-07-25T11:40:42.248Z,996.39
2017-07-25T11:41:51.914Z,996.37
2017-07-25T11:43:02.142Z,996.37
2017-07-25T11:44:12.434Z,996.36
2017-07-25T11:45:22.695Z,996.38
2017-07-25T11:46:32.700Z,996.4
2017-07-25T11:47:42.670Z,996.44
2017-07-25T11:48:52.892Z,996.45
2017-07-25T11:50:03.193Z,996.46
2017-07-25T11:51:13.158Z,996.52
2017-07-25T11:52:23.437Z,996.49
2017-07-25T11:53:33.751Z,996.5
2017-07-25T11:54:44.297Z,996.5
2017-07-25T11:55:54.584Z,996.51
2017-07-25T11:57:04.572Z,996.51
2017-07-25T11:58:14.853Z,996.53
2017-07-25T11:59:24.830Z,996.49
2017-07-25T12:00:34.753Z,996.47
2017-07-25T12:01:45.046Z,996.47
2017-07-25T12:02:55.331Z,996.47
2017-07-25T12:04:05.631Z,996.52
2017-07-25T12:05:15.914Z,996.45
2017-07-25T12:06:26.452Z,996.5
2017-07-25T12:07:36.770Z,996.46
2017-07-25T12:08:46.764Z,996.45
2017-07-25T12:09:56.746Z,996.49
2017-07-25T12:11:07.048Z,996.47
2017-07-25T12:12:17.588Z,996.44
2017-07-25T12:13:27.878Z,996.47
2017-07-25T12:14:37.848Z,996.44
2017-07-25T12:15:48.133Z,996.39
2017-07-25T12:16:58.098Z,996.43
2017-07-25T12:18:08.636Z,996.41
2017-07-25T12:19:18.909Z,996.42
2017-07-25T12:20:28.575Z,996.4
2017-07-25T12:21:38.561Z,996.41
2017-07-25T12:22:48.520Z,996.43
2017-07-25T12:23:59.052Z,996.42
2017-07-25T12:25:08.705Z,996.4
2017-07-25T12:26:18.669Z,996.39
2017-07-25T12:27:28.961Z,996.4
2017-07-25T12:28:39.237Z,996.37
2017-07-25T12:29:49.771Z,996.38
2017-07-25T12:31:00.043Z,996.37
2017-07-25T12:32:10.328Z,996.33
2017-07-25T12:33:20.298Z,996.37
2017-07-25T12:34:30.583Z,996.42
2017-07-25T12:35:41.131Z,996.37
2017-07-25T12:36:50.783Z,996.36
2017-07-25T12:38:01.072Z,996.38
2017-07-25T12:39:11.347Z,996.33
2017-07-25T12:40:20.997Z,996.34
2017-07-25T12:41:31.271Z,996.37
2017-07-25T12:42:41.233Z,996.41
2017-07-25T12:43:51.506Z,996.39
2017-07-25T12:45:01.476Z,996.37
2017-07-25T12:46:11.129Z,996.37
2017-07-25T12:47:21.668Z,996.36
2017-07-25T12:48:31.628Z,996.36
2017-07-25T12:49:41.919Z,996.33
2017-07-25T12:50:52.202Z,996.32
2017-07-25T12:52:02.196Z,996.33
2017-07-25T12:53:12.730Z,996.29
2017-07-25T12:54:22.683Z,996.28
2017-07-25T12:55:32.972Z,996.29
2017-07-25T12:56:43.253Z,996.25
2017-07-25T12:57:53.546Z,996.27
2017-07-25T12:59:03.756Z,996.31
2017-07-25T13:00:14.043Z,996.24
2017-07-25T13:01:23.697Z,996.31
2017-07-25T13:02:33.360Z,996.29
2017-07-25T13:03:43.644Z,996.31
2017-07-25T13:04:54.201Z,996.28
2017-07-25T13:06:04.482Z,996.23
2017-07-25T13:07:14.443Z,996.23
2017-07-25T13:08:24.410Z,996.22
2017-07-25T13:09:34.703Z,996.2
2017-07-25T13:10:44.613Z,996.22
2017-07-25T13:11:54.909Z,996.2
2017-07-25T13:13:05.189Z,996.24
2017-07-25T13:14:15.458Z,996.24
2017-07-25T13:15:25.742Z,996.22
2017-07-25T13:16:36.272Z,996.2
2017-07-25T13:17:46.548Z,996.25
2017-07-25T13:18:56.523Z,996.21
2017-07-25T13:20:06.784Z,996.16
2017-07-25T13:21:17.084Z,996.21
2017-07-25T13:22:27.601Z,996.22
2017-07-25T13:23:37.882Z,996.21
2017-07-25T13:24:47.847Z,996.23
2017-07-25T13:25:58.132Z,996.22
2017-07-25T13:27:08.128Z,996.18
2017-07-25T13:28:18.655Z,996.24
2017-07-25T13:29:28.947Z,996.24
2017-07-25T13:30:38.918Z,996.23
2017-07-25T13:31:49.203Z,996.22
2017-07-25T13:32:59.181Z,996.28
2017-07-25T13:34:09.417Z,996.25
2017-07-25T13:35:19.068Z,996.27
2017-07-25T13:36:29.029Z,996.26
2017-07-25T13:37:39.002Z,996.31
2017-07-25T13:38:48.990Z,996.32
2017-07-25T13:39:59.523Z,996.28
2017-07-25T13:41:09.510Z,996.29
2017-07-25T13:42:19.509Z,996.27
2017-07-25T13:43:29.824Z,996.34
2017-07-25T13:44:39.796Z,996.26
2017-07-25T13:45:50.020Z,996.31
2017-07-25T13:47:00.314Z,996.28
2017-07-25T13:48:10.591Z,996.28
2017-07-25T13:49:20.550Z,996.26
2017-07-25T13:50:30.526Z,996.22
2017-07-25T13:51:40.424Z,996.24
2017-07-25T13:52:50.714Z,996.23
2017-07-25T13:54:00.364Z,996.25
2017-07-25T13:55:10.648Z,996.26
2017-07-25T13:56:20.932Z,996.24
2017-07-25T13:57:31.472Z,996.25
2017-07-25T13:58:41.757Z,996.26
2017-07-25T13:59:51.722Z,996.24
2017-07-25T14:01:02.019Z,996.27
2017-07-25T14:02:12.307Z,996.27
2017-07-25T14:03:22.836Z,996.26
2017-07-25T14:04:32.805Z,996.32
2017-07-25T14:05:43.102Z,996.27
2017-07-25T14:06:53.071Z,996.25
2017-07-25T14:08:03.367Z,996.28
2017-07-25T14:09:13.589Z,996.29
2017-07-25T14:10:23.864Z,996.27
2017-07-25T14:11:33.511Z,996.24
2017-07-25T14:12:43.793Z,996.27
2017-07-25T14:13:54.080Z,996.29
2017-07-25T14:15:04.655Z,996.28
2017-07-25T14:16:14.952Z,996.23
2017-07-25T14:17:25.232Z,996.24
2017-07-25T14:18:35.193Z,996.26
2017-07-25T14:19:45.498Z,996.25
2017-07-25T14:20:56.006Z,996.21
2017-07-25T14:22:06.299Z,996.21
2017-07-25T14:23:16.594Z,996.21
2017-07-25T14:24:26.881Z,996.2
2017-07-25T14:25:37.164Z,996.18
2017-07-25T14:26:47.390Z,996.16
2017-07-25T14:27:57.360Z,996.14
2017-07-25T14:29:07.654Z,996.13
2017-07-25T14:30:17.650Z,996.1
2017-07-25T14:31:27.933Z,996.16
2017-07-25T14:32:37.838Z,996.14
2017-07-25T14:33:47.812Z,996.1
2017-07-25T14:34:57.789Z,996.15
2017-07-25T14:36:07.756Z,996.08
2017-07-25T14:37:18.035Z,996.06
2017-07-25T14:38:28.248Z,996.08